Time;durP1;ratioP1;P1;durP2;ratioP2;P2;SDS_P1;SDS_P2;PMS_P1;PMS_P2;Temp;Humidity;BMP_temperature;BMP_pressure;BME280_temperature;BME280_humidity;BME280_pressure;Samples;Min_cycle;Max_cycle;Signal;HPM_P1;HPM_P2
2022/04/08 00:02:13;;;;;;;;;3.60;3.60;28.30;99.90;;;;;;5077247;28;8876;-52
2022/04/08 00:04:54;;;;;;;;;3.00;3.00;28.30;99.90;;;;;;5066894;28;8867;-52
2022/04/08 00:07:23;;;;;;;;;4.00;3.00;28.30;99.90;;;;;;5078964;28;8887;-51
2022/04/08 00:09:53;;;;;;;;;3.00;3.00;28.30;99.90;;;;;;5092428;28;8830;-51
2022/04/08 00:12:24;;;;;;;;;3.40;3.20;28.30;99.90;;;;;;5081217;28;8838;-51
2022/04/08 00:14:54;;;;;;;;;3.40;3.00;28.30;99.90;;;;;;5082885;28;8874;-49
2022/04/08 00:17:25;;;;;;;;;4.00;3.00;28.40;99.90;;;;;;5082580;28;8840;-49
2022/04/08 00:19:56;;;;;;;;;5.00;3.20;28.30;99.90;;;;;;5082619;28;8851;-50
2022/04/08 00:22:28;;;;;;;;;5.80;3.00;28.30;99.90;;;;;;5084015;28;9021;-49
2022/04/08 00:24:59;;;;;;;;;4.20;4.20;28.30;99.90;;;;;;5083736;28;8843;-50
2022/04/08 00:27:29;;;;;;;;;4.80;3.20;28.30;99.90;;;;;;5084993;28;8852;-53
2022/04/08 00:30:01;;;;;;;;;3.00;3.00;28.30;99.90;;;;;;5092950;27;8906;-51
2022/04/08 00:32:34;;;;;;;;;5.00;3.40;28.30;99.90;;;;;;5085059;28;8861;-53
2022/04/08 00:35:04;;;;;;;;;2.20;2.00;28.30;99.90;;;;;;5085364;28;8989;-52
2022/04/08 00:37:34;;;;;;;;;4.00;2.80;28.30;99.90;;;;;;5077259;28;9495;-51
2022/04/08 00:40:05;;;;;;;;;3.00;3.00;28.30;99.90;;;;;;5071211;28;8995;-55
2022/04/08 00:42:36;;;;;;;;;3.80;3.80;28.40;99.90;;;;;;5076522;28;8964;-56
2022/04/08 00:45:07;;;;;;;;;3.60;2.80;28.40;99.90;;;;;;5075455;28;8857;-52
2022/04/08 00:47:41;;;;;;;;;3.20;3.20;28.40;99.90;;;;;;5077243;28;8877;-52
2022/04/08 00:50:12;;;;;;;;;3.60;3.60;28.40;99.90;;;;;;5077029;28;8888;-53
2022/04/08 00:52:46;;;;;;;;;5.00;4.20;28.40;99.90;;;;;;5084355;28;8841;-54
2022/04/08 00:55:16;;;;;;;;;2.40;2.40;28.30;99.90;;;;;;5075727;28;8854;-53
2022/04/08 00:57:47;;;;;;;;;3.00;3.00;28.30;99.90;;;;;;5075139;28;8866;-56
2022/04/08 01:00:21;;;;;;;;;3.00;3.00;28.30;99.90;;;;;;5077841;28;8996;-54
2022/04/08 01:02:51;;;;;;;;;2.60;2.60;28.30;99.90;;;;;;5081637;28;8857;-56
2022/04/08 01:05:22;;;;;;;;;6.60;4.00;28.30;99.90;;;;;;5074914;28;8873;-54
2022/04/08 01:07:54;;;;;;;;;3.20;3.20;28.30;99.90;;;;;;5087462;28;8864;-52
2022/04/08 01:10:25;;;;;;;;;3.80;3.80;28.20;99.90;;;;;;5073000;28;8840;-55
2022/04/08 01:12:57;;;;;;;;;4.00;2.40;28.20;99.90;;;;;;5077535;28;8904;-54
2022/04/08 01:15:27;;;;;;;;;2.80;2.80;28.20;99.90;;;;;;5081714;28;8831;-51
2022/04/08 01:17:59;;;;;;;;;1.60;1.60;28.20;99.90;;;;;;5073255;28;8837;-52
2022/04/08 01:20:30;;;;;;;;;4.80;4.80;28.20;99.90;;;;;;5073983;28;8864;-52
2022/04/08 01:23:01;;;;;;;;;3.40;3.40;28.20;99.90;;;;;;5076751;28;8983;-52
2022/04/08 01:25:32;;;;;;;;;3.75;3.75;28.10;99.90;;;;;;5071738;28;8896;-57
2022/04/08 01:28:02;;;;;;;;;4.00;4.00;28.10;99.90;;;;;;5069983;28;8833;-55
2022/04/08 01:30:33;;;;;;;;;3.00;3.00;28.10;99.90;;;;;;5071227;27;8837;-55
2022/04/08 01:33:03;;;;;;;;;6.00;6.00;28.10;99.90;;;;;;5066451;28;8902;-55
2022/04/08 01:35:35;;;;;;;;;2.25;2.25;28.00;99.90;;;;;;5073686;28;9015;-54
2022/04/08 01:38:06;;;;;;;;;4.00;4.00;28.00;99.90;;;;;;5072066;28;8856;-55
2022/04/08 01:40:36;;;;;;;;;4.00;4.00;28.00;99.90;;;;;;5084835;28;8872;-50
2022/04/08 01:43:07;;;;;;;;;7.25;5.50;27.90;99.90;;;;;;5076426;28;8856;-51
2022/04/08 01:45:38;;;;;;;;;3.25;3.25;27.90;99.90;;;;;;5073021;28;8853;-53
2022/04/08 01:48:10;;;;;;;;;3.00;3.00;27.90;99.90;;;;;;5082887;28;9603;-54
2022/04/08 01:50:40;;;;;;;;;3.00;3.00;27.80;99.90;;;;;;5084849;28;8866;-56
2022/04/08 01:53:13;;;;;;;;;4.00;4.00;27.80;99.90;;;;;;5072934;28;8855;-54
2022/04/08 01:55:45;;;;;;;;;4.25;3.00;27.80;99.90;;;;;;5076526;28;8837;-52
2022/04/08 01:58:16;;;;;;;;;2.75;2.75;27.70;99.90;;;;;;5074988;28;8963;-52
2022/04/08 02:00:47;;;;;;;;;4.00;4.00;27.70;99.90;;;;;;5085368;27;8870;-52
2022/04/08 02:03:20;;;;;;;;;3.00;3.00;27.60;99.90;;;;;;5076509;28;8851;-53
2022/04/08 02:05:52;;;;;;;;;4.00;2.80;27.60;99.90;;;;;;5079207;28;9234;-52
2022/04/08 02:08:22;;;;;;;;;4.75;4.75;27.50;99.90;;;;;;5068648;28;8918;-51
2022/04/08 02:10:56;;;;;;;;;2.75;2.75;27.50;99.90;;;;;;5078679;28;8877;-50
2022/04/08 02:13:27;;;;;;;;;2.00;2.00;27.40;99.90;;;;;;5084192;28;8946;-51
2022/04/08 02:15:58;;;;;;;;;2.00;2.00;27.40;99.90;;;;;;5072050;28;8837;-49
2022/04/08 02:18:29;;;;;;;;;3.25;2.00;27.30;99.90;;;;;;5069398;28;8863;-51
2022/04/08 02:21:00;;;;;;;;;1.25;1.25;27.30;99.90;;;;;;5073987;28;8920;-54
2022/04/08 02:23:31;;;;;;;;;4.00;4.00;27.20;99.90;;;;;;5082325;28;8897;-53
2022/04/08 02:26:03;;;;;;;;;2.00;2.00;27.20;99.90;;;;;;5073532;28;9004;-52
2022/04/08 02:28:34;;;;;;;;;2.25;2.25;27.20;99.90;;;;;;5064864;28;8935;-50
2022/04/08 02:31:08;;;;;;;;;3.75;3.00;27.10;99.90;;;;;;5067041;28;8856;-51
2022/04/08 02:33:39;;;;;;;;;4.00;3.00;27.00;99.90;;;;;;5068464;28;9004;-52
2022/04/08 02:36:11;;;;;;;;;3.50;3.50;27.00;99.90;;;;;;5067330;28;8871;-51
2022/04/08 02:38:42;;;;;;;;;3.25;3.25;26.90;99.90;;;;;;5072428;28;8997;-51
2022/04/08 02:41:12;;;;;;;;;3.25;2.75;26.90;99.90;;;;;;5071271;28;9573;-52
2022/04/08 02:43:42;;;;;;;;;2.75;2.00;26.80;99.90;;;;;;5086942;28;8864;-52
2022/04/08 02:46:14;;;;;;;;;4.25;3.25;26.80;99.90;;;;;;5074684;28;8881;-49
2022/04/08 02:48:45;;;;;;;;;3.00;2.00;26.80;99.90;;;;;;5066440;28;8847;-51
2022/04/08 02:51:15;;;;;;;;;3.00;2.00;26.70;99.90;;;;;;5069117;28;8825;-54
2022/04/08 02:53:47;;;;;;;;;4.00;4.00;26.70;99.90;;;;;;5077770;28;8884;-54
2022/04/08 02:56:17;;;;;;;;;2.00;2.00;26.60;99.90;;;;;;5075037;28;8860;-52
2022/04/08 02:58:48;;;;;;;;;3.00;3.00;26.60;99.90;;;;;;5076109;28;8838;-51
2022/04/08 03:01:20;;;;;;;;;2.00;2.00;26.60;99.90;;;;;;5069843;28;8827;-53
2022/04/08 03:03:52;;;;;;;;;3.00;3.00;26.60;99.90;;;;;;5077498;28;8827;-53
2022/04/08 03:06:23;;;;;;;;;4.00;4.00;26.50;99.90;;;;;;5066870;28;8916;-54
2022/04/08 03:08:54;;;;;;;;;6.00;4.00;26.50;99.90;;;;;;5064293;28;8887;-53
2022/04/08 03:11:24;;;;;;;;;3.00;3.00;26.40;99.90;;;;;;5070379;28;8983;-55
2022/04/08 03:13:59;;;;;;;;;3.00;3.00;26.40;99.90;;;;;;5074577;28;8880;-57
2022/04/08 03:16:30;;;;;;;;;5.75;4.25;26.40;99.90;;;;;;5077718;28;8843;-49
2022/04/08 03:19:01;;;;;;;;;3.50;3.00;26.40;99.90;;;;;;5070262;28;8955;-50
2022/04/08 03:21:31;;;;;;;;;3.00;3.00;26.30;99.90;;;;;;5078968;28;8829;-53
2022/04/08 03:24:03;;;;;;;;;4.00;4.00;26.20;99.90;;;;;;5073058;28;8888;-52
2022/04/08 03:26:33;;;;;;;;;4.25;3.50;26.20;99.90;;;;;;5065862;28;8836;-53
2022/04/08 03:29:04;;;;;;;;;4.00;4.00;26.20;99.90;;;;;;5072234;28;8857;-50
2022/04/08 03:31:35;;;;;;;;;3.25;3.25;26.10;99.90;;;;;;5077263;28;8825;-53
2022/04/08 03:34:06;;;;;;;;;3.00;3.00;26.10;99.90;;;;;;5070865;28;8948;-53
2022/04/08 03:36:36;;;;;;;;;3.25;3.25;26.10;99.90;;;;;;5072019;28;8859;-54
2022/04/08 03:39:08;;;;;;;;;4.00;4.00;26.00;99.90;;;;;;5074403;28;8838;-54
2022/04/08 03:41:41;;;;;;;;;5.00;5.00;26.00;99.90;;;;;;5078951;28;8835;-58
2022/04/08 03:44:13;;;;;;;;;4.25;4.25;25.90;99.90;;;;;;5073599;28;8893;-56
2022/04/08 03:46:44;;;;;;;;;4.00;4.00;25.90;99.90;;;;;;5077635;28;8869;-53
2022/04/08 03:49:17;;;;;;;;;3.25;3.25;25.80;99.90;;;;;;5070253;28;8833;-52
2022/04/08 03:51:49;;;;;;;;;4.50;4.50;25.80;99.90;;;;;;5074263;28;8854;-56
2022/04/08 03:54:21;;;;;;;;;3.50;3.50;25.70;99.90;;;;;;5072762;28;8817;-54
2022/04/08 03:56:52;;;;;;;;;6.00;6.00;25.70;99.90;;;;;;5081161;28;9652;-55
2022/04/08 03:59:24;;;;;;;;;4.25;3.50;25.70;99.90;;;;;;5070742;28;8866;-54
2022/04/08 04:01:55;;;;;;;;;3.25;3.25;25.60;99.90;;;;;;5075814;28;8868;-55
2022/04/08 04:04:27;;;;;;;;;5.75;5.75;25.60;99.90;;;;;;5087536;28;8837;-58
2022/04/08 04:06:58;;;;;;;;;3.50;3.50;25.50;99.90;;;;;;5068573;28;9352;-52
2022/04/08 04:09:29;;;;;;;;;4.00;4.00;25.50;99.90;;;;;;5075093;28;8867;-54
2022/04/08 04:12:00;;;;;;;;;4.00;4.00;25.40;99.90;;;;;;5072495;28;8856;-54
2022/04/08 04:14:31;;;;;;;;;4.75;4.75;25.30;99.90;;;;;;5079251;28;8839;-53
2022/04/08 04:17:03;;;;;;;;;4.00;3.50;25.30;99.90;;;;;;5079040;28;8834;-52
2022/04/08 04:19:33;;;;;;;;;4.25;4.25;25.20;99.90;;;;;;5077358;28;8848;-55
2022/04/08 04:22:04;;;;;;;;;3.25;3.25;25.20;99.90;;;;;;5077233;28;8875;-53
2022/04/08 04:24:34;;;;;;;;;2.00;2.00;25.20;99.90;;;;;;5080542;28;8960;-53
2022/04/08 04:27:05;;;;;;;;;4.50;4.50;25.10;99.90;;;;;;5081381;28;8977;-56
2022/04/08 04:29:36;;;;;;;;;3.50;3.50;25.10;99.90;;;;;;5079548;28;9807;-55
2022/04/08 04:32:07;;;;;;;;;4.00;4.00;25.00;99.90;;;;;;5076443;28;8839;-54
2022/04/08 04:34:38;;;;;;;;;4.50;4.50;25.00;99.90;;;;;;5078874;28;8863;-49
2022/04/08 04:37:09;;;;;;;;;5.00;3.00;24.90;99.90;;;;;;5082831;28;8840;-54
2022/04/08 04:39:41;;;;;;;;;6.00;6.00;24.80;99.90;;;;;;5071820;28;8848;-52
2022/04/08 04:42:11;;;;;;;;;5.25;5.25;24.80;99.90;;;;;;5075283;28;8868;-55
2022/04/08 04:44:42;;;;;;;;;5.25;3.25;24.80;99.90;;;;;;5075354;28;8996;-52
2022/04/08 04:47:14;;;;;;;;;4.75;4.75;24.80;99.90;;;;;;5075091;28;8859;-53
2022/04/08 04:49:46;;;;;;;;;4.00;4.00;24.70;99.90;;;;;;5071413;28;8870;-54
2022/04/08 04:52:17;;;;;;;;;5.75;5.75;24.70;99.90;;;;;;5084319;28;8835;-54
2022/04/08 04:54:48;;;;;;;;;6.25;6.25;24.60;99.90;;;;;;5072259;28;8848;-54
2022/04/08 04:57:19;;;;;;;;;5.50;5.50;24.60;99.90;;;;;;5075949;28;8865;-54
2022/04/08 04:59:49;;;;;;;;;5.50;5.50;24.50;99.90;;;;;;5076623;28;8861;-54
2022/04/08 05:02:20;;;;;;;;;5.00;5.00;24.50;99.90;;;;;;5074721;28;8848;-53
2022/04/08 05:04:50;;;;;;;;;4.75;4.75;24.50;99.90;;;;;;5070203;28;9638;-53
2022/04/08 05:07:21;;;;;;;;;5.25;5.25;24.50;99.90;;;;;;5066955;28;8859;-54
2022/04/08 05:09:52;;;;;;;;;4.50;4.50;24.50;99.90;;;;;;5073988;28;8843;-54
2022/04/08 05:12:22;;;;;;;;;5.25;5.25;24.50;99.90;;;;;;5067682;28;9104;-52
2022/04/08 05:14:54;;;;;;;;;4.75;4.00;24.40;99.90;;;;;;5079791;28;8869;-54
2022/04/08 05:17:26;;;;;;;;;5.50;4.25;24.40;99.90;;;;;;5065400;28;9765;-49
2022/04/08 05:19:58;;;;;;;;;5.50;5.00;24.30;99.90;;;;;;5076226;28;8873;-54
2022/04/08 05:22:28;;;;;;;;;5.50;4.75;24.30;99.90;;;;;;5067948;28;8854;-52
2022/04/08 05:24:59;;;;;;;;;6.00;6.00;24.30;99.90;;;;;;5072588;28;9996;-51
2022/04/08 05:27:43;;;;;;;;;4.00;4.00;24.20;99.90;;;;;;5084413;28;8834;-53
2022/04/08 05:30:18;;;;;;;;;5.25;5.25;24.10;99.90;;;;;;5075688;28;9675;-55
2022/04/08 05:32:49;;;;;;;;;5.25;5.25;24.10;99.90;;;;;;5079283;27;8955;-54
2022/04/08 05:35:20;;;;;;;;;6.25;6.25;24.10;99.90;;;;;;5076045;28;8835;-51
2022/04/08 05:37:50;;;;;;;;;5.00;5.00;24.10;99.90;;;;;;5069013;28;8853;-52
2022/04/08 05:40:21;;;;;;;;;7.00;7.00;24.00;99.90;;;;;;5076417;28;8850;-55
2022/04/08 05:42:53;;;;;;;;;6.00;6.00;24.00;99.90;;;;;;5071536;28;8851;-53
2022/04/08 05:45:24;;;;;;;;;5.75;5.75;24.00;99.90;;;;;;5083049;28;8886;-54
2022/04/08 05:47:54;;;;;;;;;7.25;6.00;23.90;99.90;;;;;;5073729;28;8884;-53
2022/04/08 05:50:24;;;;;;;;;7.00;7.00;23.90;99.90;;;;;;5074075;28;8842;-52
2022/04/08 05:52:55;;;;;;;;;4.75;4.75;23.80;99.90;;;;;;5070677;28;8848;-49
2022/04/08 05:55:28;;;;;;;;;6.00;6.00;23.80;99.90;;;;;;5074941;28;9914;-51
2022/04/08 05:58:00;;;;;;;;;4.25;4.25;23.70;99.90;;;;;;5072059;28;9618;-51
2022/04/08 06:00:31;;;;;;;;;5.00;5.00;23.70;99.90;;;;;;5077856;28;8906;-55
2022/04/08 06:03:01;;;;;;;;;4.25;4.25;23.70;99.90;;;;;;5081272;28;8884;-53
2022/04/08 06:05:32;;;;;;;;;6.25;6.25;23.60;99.90;;;;;;5072473;28;9631;-50
2022/04/08 06:08:04;;;;;;;;;7.00;7.00;23.60;99.90;;;;;;5072655;28;8865;-51
2022/04/08 06:10:34;;;;;;;;;7.50;7.00;23.50;99.90;;;;;;5074238;28;8936;-52
2022/04/08 06:13:04;;;;;;;;;6.00;6.00;23.40;99.90;;;;;;5085145;28;8882;-52
2022/04/08 06:15:35;;;;;;;;;8.00;6.00;23.40;99.90;;;;;;5069992;28;10099;-53
2022/04/08 06:18:10;;;;;;;;;7.67;7.67;23.30;99.90;;;;;;5066644;28;8860;-53
2022/04/08 06:20:40;;;;;;;;;6.25;6.25;23.30;99.90;;;;;;5074407;28;9089;-52
2022/04/08 06:23:12;;;;;;;;;6.50;6.50;23.20;99.90;;;;;;5084531;28;8859;-52
2022/04/08 06:25:42;;;;;;;;;5.50;5.50;23.20;99.90;;;;;;5076884;28;8852;-53
2022/04/08 06:28:13;;;;;;;;;7.00;5.33;23.20;99.90;;;;;;5081853;28;8877;-54
2022/04/08 06:30:45;;;;;;;;;8.50;6.75;23.10;99.90;;;;;;5068001;28;8953;-55
2022/04/08 06:33:16;;;;;;;;;8.00;6.00;23.10;99.90;;;;;;5065831;28;8879;-55
2022/04/08 06:35:47;;;;;;;;;6.33;6.33;23.00;99.90;;;;;;5071047;28;8855;-52
2022/04/08 06:38:18;;;;;;;;;7.00;7.00;23.00;99.90;;;;;;5081337;28;8922;-51
2022/04/08 06:40:48;;;;;;;;;6.50;6.00;22.90;99.90;;;;;;5074846;28;9052;-53
2022/04/08 06:43:20;;;;;;;;;6.00;6.00;22.90;99.90;;;;;;5086098;28;8856;-55
2022/04/08 06:45:52;;;;;;;;;8.67;8.00;22.90;99.90;;;;;;5076822;28;8986;-54
2022/04/08 06:48:23;;;;;;;;;8.33;7.00;22.80;99.90;;;;;;5074183;28;9012;-54
2022/04/08 06:50:56;;;;;;;;;7.00;7.00;22.80;99.90;;;;;;5075659;28;9163;-52
2022/04/08 06:53:27;;;;;;;;;8.33;8.33;22.70;99.90;;;;;;5076846;28;9159;-51
2022/04/08 06:55:58;;;;;;;;;8.00;8.00;22.60;99.90;;;;;;5084356;28;9044;-53
2022/04/08 06:58:30;;;;;;;;;7.33;6.00;22.60;99.90;;;;;;5080423;28;9081;-52
2022/04/08 07:01:01;;;;;;;;;6.00;6.00;22.60;99.90;;;;;;5085630;28;9184;-52
2022/04/08 07:03:32;;;;;;;;;7.33;7.33;22.50;99.90;;;;;;5075980;27;9802;-54
2022/04/08 07:06:03;;;;;;;;;8.33;8.33;22.50;99.90;;;;;;5070265;28;9066;-54
2022/04/08 07:08:34;;;;;;;;;10.67;9.00;22.40;99.90;;;;;;5062602;28;9217;-53
2022/04/08 07:11:05;;;;;;;;;9.00;7.00;22.40;99.90;;;;;;5069971;28;9231;-51
2022/04/08 07:13:38;;;;;;;;;6.00;6.00;22.40;99.90;;;;;;5067766;28;9078;-52
2022/04/08 07:16:09;;;;;;;;;8.33;8.33;22.30;99.90;;;;;;5068782;28;9140;-53
2022/04/08 07:18:41;;;;;;;;;8.33;8.33;22.30;99.90;;;;;;5071713;28;9179;-52
2022/04/08 07:21:11;;;;;;;;;7.00;7.00;22.20;99.90;;;;;;5080269;28;9257;-49
2022/04/08 07:23:43;;;;;;;;;9.00;9.00;22.20;99.90;;;;;;5071530;28;9602;-52
2022/04/08 07:26:14;;;;;;;;;8.67;8.67;22.20;99.90;;;;;;5081104;28;9922;-50
2022/04/08 07:28:46;;;;;;;;;10.33;9.33;22.10;99.90;;;;;;5071416;28;9165;-54
2022/04/08 07:31:17;;;;;;;;;9.33;8.00;22.10;99.90;;;;;;5068651;28;9234;-54
2022/04/08 07:33:48;;;;;;;;;11.00;9.00;22.00;99.90;;;;;;5076458;28;9456;-50
2022/04/08 07:36:18;;;;;;;;;9.67;9.67;21.90;99.90;;;;;;5080371;28;9328;-54
2022/04/08 07:38:48;;;;;;;;;7.33;6.00;21.90;99.90;;;;;;5074839;28;9667;-53
2022/04/08 07:41:18;;;;;;;;;6.33;6.33;21.90;99.90;;;;;;5072548;28;9515;-53
2022/04/08 07:43:50;;;;;;;;;7.00;7.00;21.80;99.90;;;;;;5076664;28;9446;-52
2022/04/08 07:46:21;;;;;;;;;9.00;8.33;21.80;99.90;;;;;;5065917;28;9431;-51
2022/04/08 07:48:54;;;;;;;;;8.00;8.00;21.80;99.90;;;;;;5049922;28;9593;-53
2022/04/08 07:51:25;;;;;;;;;7.00;7.00;21.70;99.90;;;;;;5073023;28;9235;-55
2022/04/08 07:53:56;;;;;;;;;10.50;10.50;21.60;99.90;;;;;;5072715;28;9516;-52
2022/04/08 07:56:27;;;;;;;;;7.75;7.75;21.60;99.90;;;;;;5070804;28;10487;-52
2022/04/08 07:59:00;;;;;;;;;11.50;10.50;21.60;99.90;;;;;;5077785;28;9701;-51
2022/04/08 08:01:31;;;;;;;;;9.33;8.00;21.50;99.90;;;;;;5063365;28;9536;-52
2022/04/08 08:04:02;;;;;;;;;9.33;9.33;21.50;99.90;;;;;;5071024;28;9535;-50
2022/04/08 08:06:34;;;;;;;;;7.75;7.75;21.50;99.90;;;;;;5071925;28;9539;-50
2022/04/08 08:09:04;;;;;;;;;8.75;8.75;21.40;99.90;;;;;;5075948;28;9542;-53
2022/04/08 08:11:35;;;;;;;;;7.00;7.00;21.40;99.90;;;;;;5079854;28;9545;-50
2022/04/08 08:14:06;;;;;;;;;10.50;9.00;21.40;99.90;;;;;;5073905;28;9522;-51
2022/04/08 08:16:37;;;;;;;;;6.50;6.50;21.30;99.90;;;;;;5075944;28;9716;-51
2022/04/08 08:19:09;;;;;;;;;7.00;7.00;21.20;99.90;;;;;;5071037;28;9534;-51
2022/04/08 08:21:40;;;;;;;;;6.33;6.33;21.20;99.90;;;;;;5082387;28;9780;-50
2022/04/08 08:24:10;;;;;;;;;7.75;7.75;21.20;99.90;;;;;;5070400;28;9434;-53
2022/04/08 08:26:41;;;;;;;;;7.25;6.00;21.10;99.90;;;;;;5069843;28;9710;-50
2022/04/08 08:29:12;;;;;;;;;5.25;5.25;21.10;99.90;;;;;;5072177;28;9600;-51
2022/04/08 08:31:43;;;;;;;;;6.50;6.25;21.10;99.90;;;;;;5072263;28;9630;-52
2022/04/08 08:34:17;;;;;;;;;8.00;8.00;21.00;99.90;;;;;;5073100;28;10413;-50
2022/04/08 08:36:47;;;;;;;;;7.00;7.00;21.00;99.90;;;;;;5077585;28;9621;-52
2022/04/08 08:39:19;;;;;;;;;7.00;7.00;21.00;99.90;;;;;;5070949;28;9710;-50
2022/04/08 08:41:49;;;;;;;;;7.50;7.50;20.90;99.90;;;;;;5087827;28;9575;-52
2022/04/08 08:44:21;;;;;;;;;7.50;7.50;20.90;99.90;;;;;;5077309;28;9702;-53
2022/04/08 08:46:53;;;;;;;;;8.00;8.00;20.80;99.90;;;;;;5074626;28;9771;-53
2022/04/08 08:49:31;;;;;;;;;8.00;8.00;20.80;99.90;;;;;;5079378;28;9830;-54
2022/04/08 08:52:06;;;;;;;;;8.00;8.00;20.70;99.90;;;;;;5078619;28;10366;-55
2022/04/08 08:54:38;;;;;;;;;8.00;8.00;20.70;99.90;;;;;;5076647;28;9640;-53
2022/04/08 08:57:10;;;;;;;;;11.25;9.75;20.70;99.90;;;;;;5080718;28;9769;-53
2022/04/08 08:59:40;;;;;;;;;9.00;9.00;20.70;99.90;;;;;;5073138;28;9969;-51
2022/04/08 09:02:09;;;;;;;;;6.50;6.50;20.60;99.90;;;;;;5073119;28;9991;-52
2022/04/08 09:04:42;;;;;;;;;8.00;8.00;20.60;99.90;;;;;;5064904;28;10402;-51
2022/04/08 09:07:29;;;;;;;;;8.75;7.75;20.50;99.90;;;;;;5077319;27;9854;-52
2022/04/08 09:09:59;;;;;;;;;10.75;10.00;20.50;99.90;;;;;;5077420;28;9799;-53
2022/04/08 09:12:32;;;;;;;;;13.00;10.50;20.40;99.90;;;;;;5071987;28;10052;-53
2022/04/08 09:15:04;;;;;;;;;10.50;10.50;20.40;99.90;;;;;;5058391;28;10513;-53
2022/04/08 09:17:35;;;;;;;;;5.00;5.00;20.40;99.90;;;;;;5065065;28;10228;-54
2022/04/08 09:20:06;;;;;;;;;7.50;7.50;20.40;99.90;;;;;;5072016;28;9817;-53
2022/04/08 09:22:36;;;;;;;;;10.50;10.50;20.30;99.90;;;;;;5071675;28;9842;-49
2022/04/08 09:25:10;;;;;;;;;7.50;7.50;20.30;99.90;;;;;;5079190;28;10003;-53
2022/04/08 09:27:43;;;;;;;;;8.00;6.00;20.20;99.90;;;;;;5066608;28;10091;-54
2022/04/08 09:30:20;;;;;;;;;6.00;6.00;20.20;99.90;;;;;;5073348;28;9708;-53
2022/04/08 09:32:50;;;;;;;;;8.75;8.75;20.10;99.90;;;;;;5067281;28;10635;-52
2022/04/08 09:35:21;;;;;;;;;7.00;7.00;20.10;99.90;;;;;;5077435;28;9905;-50
2022/04/08 09:38:01;;;;;;;;;7.00;7.00;20.10;99.90;;;;;;5074086;28;10063;-50
2022/04/08 09:40:45;;;;;;;;;6.25;6.25;20.00;99.90;;;;;;5074028;28;10024;-52
2022/04/08 09:43:17;;;;;;;;;4.75;4.25;20.00;99.90;;;;;;5075154;28;10015;-52
2022/04/08 09:45:49;;;;;;;;;8.25;8.25;19.90;99.90;;;;;;5072249;28;9681;-52
2022/04/08 09:48:20;;;;;;;;;7.25;7.25;19.90;99.90;;;;;;5076148;28;10009;-52
2022/04/08 09:50:53;;;;;;;;;5.50;5.50;19.90;99.90;;;;;;5078850;27;10141;-52
2022/04/08 09:53:26;;;;;;;;;4.75;4.75;19.80;99.90;;;;;;5077335;28;9958;-51
2022/04/08 09:55:57;;;;;;;;;5.50;5.50;19.80;99.90;;;;;;5075744;28;9967;-50
2022/04/08 09:58:30;;;;;;;;;5.50;5.50;19.70;99.90;;;;;;5075219;27;9936;-52
2022/04/08 10:01:02;;;;;;;;;9.25;8.25;19.70;99.90;;;;;;5079493;28;10144;-53
2022/04/08 10:03:33;;;;;;;;;16.50;14.25;19.70;99.90;;;;;;5071865;28;10195;-53
2022/04/08 10:06:03;;;;;;;;;17.50;14.50;19.70;99.90;;;;;;5075571;28;10735;-52
2022/04/08 10:08:35;;;;;;;;;8.25;8.25;19.60;99.90;;;;;;5078965;28;10962;-52
2022/04/08 10:11:13;;;;;;;;;9.50;9.50;19.60;99.90;;;;;;5080427;28;10933;-53
2022/04/08 10:14:24;;;;;;;;;8.25;8.25;19.50;99.90;;;;;;5078669;28;10852;-52
2022/04/08 10:16:56;;;;;;;;;10.25;10.25;19.50;99.90;;;;;;5072210;28;11055;-53
2022/04/08 10:19:29;;;;;;;;;10.00;10.00;19.50;99.90;;;;;;5071283;28;11475;-54
2022/04/08 10:22:02;;;;;;;;;13.75;13.75;19.40;99.90;;;;;;5081583;28;11406;-51
2022/04/08 10:24:33;;;;;;;;;16.75;16.75;19.40;99.90;;;;;;5078070;28;11452;-52
2022/04/08 10:27:10;;;;;;;;;21.50;20.25;19.40;99.90;;;;;;5079234;28;11506;-53
2022/04/08 10:29:40;;;;;;;;;16.25;16.25;19.30;99.90;;;;;;5074938;28;12684;-53
2022/04/08 10:32:15;;;;;;;;;19.00;19.00;19.30;99.90;;;;;;5070393;28;11508;-53
2022/04/08 10:34:51;;;;;;;;;15.00;15.00;19.20;99.90;;;;;;5081098;28;11505;-52
2022/04/08 10:37:25;;;;;;;;;22.25;22.25;19.20;99.90;;;;;;5070929;28;11517;-50
2022/04/08 10:40:04;;;;;;;;;26.25;26.25;19.20;99.90;;;;;;5073621;28;11509;-51
2022/04/08 10:42:34;;;;;;;;;24.25;24.25;19.10;99.90;;;;;;5077813;28;11531;-49
2022/04/08 10:45:13;;;;;;;;;24.25;24.25;19.10;99.90;;;;;;5077156;28;11550;-52
2022/04/08 10:47:50;;;;;;;;;22.75;22.75;19.10;99.90;;;;;;5071152;28;11452;-51
2022/04/08 10:50:34;;;;;;;;;22.25;21.75;19.00;99.90;;;;;;5077579;28;11496;-48
2022/04/08 10:53:24;;;;;;;;;29.75;27.50;19.00;99.90;;;;;;5071344;28;11535;-50
2022/04/08 10:56:09;;;;;;;;;23.25;22.00;18.90;99.90;;;;;;5068179;28;11690;-50
2022/04/08 10:58:44;;;;;;;;;26.25;25.25;18.90;99.90;;;;;;5064379;28;11620;-53
2022/04/08 11:01:24;;;;;;;;;28.00;27.75;18.90;99.90;;;;;;5072183;28;11536;-53
2022/04/08 11:04:01;;;;;;;;;30.75;28.75;18.90;99.90;;;;;;5071568;28;11567;-50
2022/04/08 11:06:33;;;;;;;;;32.00;31.00;18.80;99.90;;;;;;5072662;28;11553;-51
2022/04/08 11:09:14;;;;;;;;;30.75;28.50;18.80;99.90;;;;;;5077863;28;12389;-52
2022/04/08 11:11:52;;;;;;;;;26.25;25.00;18.80;99.90;;;;;;5078115;28;11525;-51
2022/04/08 11:14:22;;;;;;;;;28.75;27.00;18.80;99.90;;;;;;5081847;28;12324;-51
2022/04/08 11:16:54;;;;;;;;;23.50;23.50;18.70;99.90;;;;;;5069325;28;11521;-50
2022/04/08 11:19:24;;;;;;;;;28.75;27.00;18.70;99.90;;;;;;5033019;28;11499;-52
2022/04/08 11:21:57;;;;;;;;;26.75;26.75;18.70;99.90;;;;;;5080236;28;11510;-54
2022/04/08 11:24:32;;;;;;;;;17.75;17.75;18.70;99.90;;;;;;5063877;28;12794;-52
2022/04/08 11:27:04;;;;;;;;;26.25;24.75;18.60;99.90;;;;;;5063241;28;11523;-51
2022/04/08 11:29:39;;;;;;;;;27.50;25.50;18.60;99.90;;;;;;5073164;28;11504;-53
2022/04/08 11:32:12;;;;;;;;;22.00;20.00;18.60;99.90;;;;;;5065403;28;11483;-51
2022/04/08 11:34:43;;;;;;;;;18.00;16.75;18.60;99.90;;;;;;5077044;28;11616;-51
2022/04/08 11:37:12;;;;;;;;;14.50;14.50;18.50;99.90;;;;;;5074255;28;11640;-53
2022/04/08 11:39:43;;;;;;;;;15.50;15.50;18.50;99.90;;;;;;5070629;28;11214;-53
2022/04/08 11:42:16;;;;;;;;;15.25;15.25;18.50;99.90;;;;;;5076599;28;11153;-49
2022/04/08 11:44:53;;;;;;;;;13.75;12.25;18.40;99.90;;;;;;5066584;28;10990;-50
2022/04/08 11:47:32;;;;;;;;;13.50;12.50;18.40;99.90;;;;;;5074849;28;11016;-52
2022/04/08 11:50:07;;;;;;;;;11.75;11.75;18.40;99.90;;;;;;5078756;28;10377;-53
2022/04/08 11:52:37;;;;;;;;;11.00;11.00;18.40;99.90;;;;;;5081603;28;10990;-52
2022/04/08 11:55:09;;;;;;;;;10.50;10.50;18.30;99.90;;;;;;5076491;28;10552;-52
2022/04/08 11:57:45;;;;;;;;;10.00;10.00;18.30;99.90;;;;;;5065568;28;10295;-51
2022/04/08 12:00:15;;;;;;;;;9.00;8.00;18.20;99.90;;;;;;5075918;28;10616;-50
2022/04/08 12:02:47;;;;;;;;;9.50;7.50;18.20;99.90;;;;;;5075954;28;11180;-52
2022/04/08 12:05:24;;;;;;;;;10.50;10.50;18.20;99.90;;;;;;5081937;28;10418;-53
2022/04/08 12:08:02;;;;;;;;;9.25;9.00;18.10;99.90;;;;;;5067938;28;10630;-48
2022/04/08 12:10:34;;;;;;;;;5.75;5.75;18.10;99.90;;;;;;5069719;28;10722;-51
2022/04/08 12:13:22;;;;;;;;;4.00;4.00;18.10;99.90;;;;;;5083738;28;10612;-51
2022/04/08 12:15:59;;;;;;;;;10.00;7.50;18.10;99.90;;;;;;5076088;28;10501;-52
2022/04/08 12:18:32;;;;;;;;;5.25;5.25;18.10;99.90;;;;;;5082492;28;10904;-52
2022/04/08 12:21:07;;;;;;;;;4.00;4.00;18.10;99.90;;;;;;5081063;28;10951;-53
2022/04/08 12:23:41;;;;;;;;;5.00;5.00;18.10;99.90;;;;;;5075528;28;10948;-50
2022/04/08 12:26:11;;;;;;;;;5.50;5.50;18.00;99.90;;;;;;5084161;28;11466;-51
2022/04/08 12:28:42;;;;;;;;;13.00;11.25;18.00;99.90;;;;;;5077522;28;11537;-50
2022/04/08 12:31:20;;;;;;;;;13.00;13.00;18.00;99.90;;;;;;5074555;28;11519;-51
2022/04/08 12:33:51;;;;;;;;;14.00;14.00;17.90;99.90;;;;;;5078144;28;11552;-52
2022/04/08 12:36:23;;;;;;;;;15.75;15.75;17.90;99.90;;;;;;5079315;28;11490;-52
2022/04/08 12:38:54;;;;;;;;;19.00;19.00;17.90;99.90;;;;;;5076240;28;11529;-51
2022/04/08 12:41:25;;;;;;;;;18.75;18.75;17.80;99.90;;;;;;5071365;28;12251;-50
2022/04/08 12:43:57;;;;;;;;;17.25;17.25;17.80;99.90;;;;;;5085390;28;11599;-52
2022/04/08 12:46:28;;;;;;;;;21.00;21.00;17.80;99.90;;;;;;5069004;28;11563;-52
2022/04/08 12:48:59;;;;;;;;;19.50;19.50;17.80;99.90;;;;;;5078192;28;11518;-50
2022/04/08 12:51:31;;;;;;;;;27.00;23.25;17.70;99.90;;;;;;5070795;28;12697;-49
2022/04/08 12:54:02;;;;;;;;;23.25;23.25;17.70;99.90;;;;;;5079188;28;11544;-53
2022/04/08 12:56:32;;;;;;;;;26.75;26.00;17.70;99.90;;;;;;5077056;28;12311;-52
2022/04/08 12:59:03;;;;;;;;;27.00;26.50;17.70;99.90;;;;;;5081522;28;11683;-52
2022/04/08 13:01:34;;;;;;;;;27.50;27.25;17.60;99.90;;;;;;5076957;28;11602;-52
2022/04/08 13:04:06;;;;;;;;;32.25;31.00;17.60;99.90;;;;;;5088659;27;11600;-49
2022/04/08 13:06:36;;;;;;;;;35.25;32.25;17.50;99.90;;;;;;5073693;28;11698;-50
2022/04/08 13:09:08;;;;;;;;;41.25;36.75;17.50;99.90;;;;;;5077586;28;11538;-51
2022/04/08 13:11:38;;;;;;;;;38.00;34.75;17.50;99.90;;;;;;5080002;28;11542;-53
2022/04/08 13:14:10;;;;;;;;;22.75;22.75;17.50;99.90;;;;;;5075560;28;11606;-49
2022/04/08 13:16:42;;;;;;;;;12.50;12.50;17.40;99.90;;;;;;5076137;28;11595;-53